sensor_id;sensor_type;location;lat;lon;timestamp;temperature;humidity
13585;DHT22;6863;48.402;9.994;2024-02-28T00:00:12;7.00;99.90
13585;DHT22;6863;48.402;9.994;2024-02-28T00:02:37;7.00;99.90
13585;DHT22;6863;48.402;9.994;2024-02-28T00:05:03;7.00;99.90
13585;DHT22;6863;48.402;9.994;2024-02-28T00:07:29;7.00;99.90
13585;DHT22;6863;48.402;9.994;2024-02-28T00:09:55;7.00;99.90
13585;DHT22;6863;48.402;9.994;2024-02-28T00:12:23;7.00;99.90
13585;DHT22;6863;48.402;9.994;2024-02-28T00:14:51;6.90;99.90
13585;DHT22;6863;48.402;9.994;2024-02-28T00:17:16;7.00;99.90
13585;DHT22;6863;48.402;9.994;2024-02-28T00:19:42;7.00;99.90
13585;DHT22;6863;48.402;9.994;2024-02-28T00:22:09;7.00;99.90
13585;DHT22;6863;48.402;9.994;2024-02-28T00:24:34;7.00;99.90
13585;DHT22;6863;48.402;9.994;2024-02-28T00:27:00;7.00;99.90
13585;DHT22;6863;48.402;9.994;2024-02-28T00:29:26;6.90;99.90
13585;DHT22;6863;48.402;9.994;2024-02-28T00:31:51;6.90;99.90
13585;DHT22;6863;48.402;9.994;2024-02-28T00:34:17;6.90;99.90
13585;DHT22;6863;48.402;9.994;2024-02-28T00:36:43;6.80;99.90
13585;DHT22;6863;48.402;9.994;2024-02-28T00:39:09;6.80;99.90
13585;DHT22;6863;48.402;9.994;2024-02-28T00:41:34;6.70;99.90
13585;DHT22;6863;48.402;9.994;2024-02-28T00:44:00;6.70;99.90
13585;DHT22;6863;48.402;9.994;2024-02-28T00:46:25;6.70;99.90
13585;DHT22;6863;48.402;9.994;2024-02-28T00:48:51;6.70;99.90
13585;DHT22;6863;48.402;9.994;2024-02-28T00:51:16;6.70;99.90
13585;DHT22;6863;48.402;9.994;2024-02-28T00:53:42;6.70;99.90
13585;DHT22;6863;48.402;9.994;2024-02-28T00:56:08;6.70;99.90
13585;DHT22;6863;48.402;9.994;2024-02-28T00:58:34;6.70;99.90
13585;DHT22;6863;48.402;9.994;2024-02-28T01:01:00;6.70;99.90
13585;DHT22;6863;48.402;9.994;2024-02-28T01:03:25;6.80;99.90
13585;DHT22;6863;48.402;9.994;2024-02-28T01:05:51;6.70;99.90
13585;DHT22;6863;48.402;9.994;2024-02-28T01:08:17;6.80;99.90
13585;DHT22;6863;48.402;9.994;2024-02-28T01:10:43;6.80;99.90
13585;DHT22;6863;48.402;9.994;2024-02-28T01:13:11;6.80;99.90
13585;DHT22;6863;48.402;9.994;2024-02-28T01:15:39;6.70;99.90
13585;DHT22;6863;48.402;9.994;2024-02-28T01:18:06;6.80;99.90
13585;DHT22;6863;48.402;9.994;2024-02-28T01:20:31;6.80;99.90
13585;DHT22;6863;48.402;9.994;2024-02-28T01:22:57;6.80;99.90
13585;DHT22;6863;48.402;9.994;2024-02-28T01:25:22;6.70;99.90
13585;DHT22;6863;48.402;9.994;2024-02-28T01:27:48;6.70;99.90
13585;DHT22;6863;48.402;9.994;2024-02-28T01:30:13;6.70;99.90
13585;DHT22;6863;48.402;9.994;2024-02-28T01:32:39;6.70;99.90
13585;DHT22;6863;48.402;9.994;2024-02-28T01:35:05;6.70;99.90
13585;DHT22;6863;48.402;9.994;2024-02-28T01:37:31;6.70;99.90
13585;DHT22;6863;48.402;9.994;2024-02-28T01:39:57;6.70;99.90
13585;DHT22;6863;48.402;9.994;2024-02-28T01:42:22;6.70;99.90
13585;DHT22;6863;48.402;9.994;2024-02-28T01:44:48;6.70;99.90
13585;DHT22;6863;48.402;9.994;2024-02-28T01:47:14;6.70;99.90
13585;DHT22;6863;48.402;9.994;2024-02-28T01:49:41;6.70;99.90
13585;DHT22;6863;48.402;9.994;2024-02-28T01:52:07;6.70;99.90
13585;DHT22;6863;48.402;9.994;2024-02-28T01:54:34;6.70;99.90
13585;DHT22;6863;48.402;9.994;2024-02-28T01:57:00;6.70;99.90
13585;DHT22;6863;48.402;9.994;2024-02-28T01:59:26;6.70;99.90
13585;DHT22;6863;48.402;9.994;2024-02-28T02:01:53;6.80;99.90
13585;DHT22;6863;48.402;9.994;2024-02-28T02:04:19;6.80;99.90
13585;DHT22;6863;48.402;9.994;2024-02-28T02:06:45;6.70;99.90
13585;DHT22;6863;48.402;9.994;2024-02-28T02:09:12;6.70;99.90
13585;DHT22;6863;48.402;9.994;2024-02-28T02:11:39;6.70;99.90
13585;DHT22;6863;48.402;9.994;2024-02-28T02:14:04;6.70;99.90
13585;DHT22;6863;48.402;9.994;2024-02-28T02:16:30;6.70;99.90
13585;DHT22;6863;48.402;9.994;2024-02-28T02:18:56;6.70;99.90
13585;DHT22;6863;48.402;9.994;2024-02-28T02:21:30;6.70;99.90
13585;DHT22;6863;48.402;9.994;2024-02-28T02:23:56;6.70;99.90
13585;DHT22;6863;48.402;9.994;2024-02-28T02:26:22;6.80;99.90
13585;DHT22;6863;48.402;9.994;2024-02-28T02:28:48;6.70;99.90
13585;DHT22;6863;48.402;9.994;2024-02-28T02:31:14;6.70;99.90
13585;DHT22;6863;48.402;9.994;2024-02-28T02:33:39;6.80;99.90
13585;DHT22;6863;48.402;9.994;2024-02-28T02:36:05;6.80;99.90
13585;DHT22;6863;48.402;9.994;2024-02-28T02:38:31;6.70;99.90
13585;DHT22;6863;48.402;9.994;2024-02-28T02:40:56;6.70;99.90
13585;DHT22;6863;48.402;9.994;2024-02-28T02:43:22;6.60;99.90
13585;DHT22;6863;48.402;9.994;2024-02-28T02:45:48;6.60;99.90
13585;DHT22;6863;48.402;9.994;2024-02-28T02:48:13;6.60;99.90
13585;DHT22;6863;48.402;9.994;2024-02-28T02:50:39;6.60;99.90
13585;DHT22;6863;48.402;9.994;2024-02-28T02:53:06;6.60;99.90
13585;DHT22;6863;48.402;9.994;2024-02-28T02:55:32;6.60;99.90
13585;DHT22;6863;48.402;9.994;2024-02-28T02:57:58;6.60;99.90
13585;DHT22;6863;48.402;9.994;2024-02-28T03:00:23;6.60;99.90
13585;DHT22;6863;48.402;9.994;2024-02-28T03:02:49;6.60;99.90
13585;DHT22;6863;48.402;9.994;2024-02-28T03:05:14;6.60;99.90
13585;DHT22;6863;48.402;9.994;2024-02-28T03:07:40;6.70;99.90
13585;DHT22;6863;48.402;9.994;2024-02-28T03:10:06;6.70;99.90
13585;DHT22;6863;48.402;9.994;2024-02-28T03:12:32;6.70;99.90
13585;DHT22;6863;48.402;9.994;2024-02-28T03:14:57;6.70;99.90
13585;DHT22;6863;48.402;9.994;2024-02-28T03:17:23;6.70;99.90
13585;DHT22;6863;48.402;9.994;2024-02-28T03:19:49;6.70;99.90
13585;DHT22;6863;48.402;9.994;2024-02-28T03:22:14;6.60;99.90
13585;DHT22;6863;48.402;9.994;2024-02-28T03:24:40;6.60;99.90
13585;DHT22;6863;48.402;9.994;2024-02-28T03:27:06;6.60;99.90
13585;DHT22;6863;48.402;9.994;2024-02-28T03:29:32;6.60;99.90
13585;DHT22;6863;48.402;9.994;2024-02-28T03:31:58;6.60;99.90
13585;DHT22;6863;48.402;9.994;2024-02-28T03:34:24;6.70;99.90
13585;DHT22;6863;48.402;9.994;2024-02-28T03:36:50;6.70;99.90
13585;DHT22;6863;48.402;9.994;2024-02-28T03:39:15;6.60;99.90
13585;DHT22;6863;48.402;9.994;2024-02-28T03:41:42;6.70;99.90
13585;DHT22;6863;48.402;9.994;2024-02-28T03:44:07;6.60;99.90
13585;DHT22;6863;48.402;9.994;2024-02-28T03:46:33;6.60;99.90
13585;DHT22;6863;48.402;9.994;2024-02-28T03:48:59;6.60;99.90
13585;DHT22;6863;48.402;9.994;2024-02-28T03:51:24;6.60;99.90
13585;DHT22;6863;48.402;9.994;2024-02-28T03:53:50;6.60;99.90
13585;DHT22;6863;48.402;9.994;2024-02-28T03:56:25;6.60;99.90
13585;DHT22;6863;48.402;9.994;2024-02-28T03:58:51;6.60;99.90
13585;DHT22;6863;48.402;9.994;2024-02-28T04:01:17;6.50;99.90
13585;DHT22;6863;48.402;9.994;2024-02-28T04:03:43;6.50;99.90
13585;DHT22;6863;48.402;9.994;2024-02-28T04:06:09;6.50;99.90
13585;DHT22;6863;48.402;9.994;2024-02-28T04:08:34;6.50;99.90
13585;DHT22;6863;48.402;9.994;2024-02-28T04:11:00;6.60;99.90
13585;DHT22;6863;48.402;9.994;2024-02-28T04:13:25;6.50;99.90
13585;DHT22;6863;48.402;9.994;2024-02-28T04:15:51;6.50;99.90
13585;DHT22;6863;48.402;9.994;2024-02-28T04:18:17;6.50;99.90
13585;DHT22;6863;48.402;9.994;2024-02-28T04:20:43;6.50;99.90
13585;DHT22;6863;48.402;9.994;2024-02-28T04:23:08;6.50;99.90
13585;DHT22;6863;48.402;9.994;2024-02-28T04:25:34;6.50;99.90
13585;DHT22;6863;48.402;9.994;2024-02-28T04:28:01;6.50;99.90
13585;DHT22;6863;48.402;9.994;2024-02-28T04:30:27;6.40;99.90
13585;DHT22;6863;48.402;9.994;2024-02-28T04:32:52;6.50;99.90
13585;DHT22;6863;48.402;9.994;2024-02-28T04:35:18;6.40;99.90
13585;DHT22;6863;48.402;9.994;2024-02-28T04:37:45;6.40;99.90
13585;DHT22;6863;48.402;9.994;2024-02-28T04:40:11;6.40;99.90
13585;DHT22;6863;48.402;9.994;2024-02-28T04:42:37;6.40;99.90
13585;DHT22;6863;48.402;9.994;2024-02-28T04:45:04;6.40;99.90
13585;DHT22;6863;48.402;9.994;2024-02-28T04:47:29;6.40;99.90
13585;DHT22;6863;48.402;9.994;2024-02-28T04:49:56;6.30;99.90
13585;DHT22;6863;48.402;9.994;2024-02-28T04:52:21;6.40;99.90
13585;DHT22;6863;48.402;9.994;2024-02-28T04:54:47;6.30;99.90
13585;DHT22;6863;48.402;9.994;2024-02-28T04:57:13;6.30;99.90
13585;DHT22;6863;48.402;9.994;2024-02-28T04:59:38;6.30;99.90
13585;DHT22;6863;48.402;9.994;2024-02-28T05:02:04;6.30;99.90
13585;DHT22;6863;48.402;9.994;2024-02-28T05:04:30;6.20;99.90
13585;DHT22;6863;48.402;9.994;2024-02-28T05:06:56;6.20;99.90
13585;DHT22;6863;48.402;9.994;2024-02-28T05:09:21;6.30;99.90
13585;DHT22;6863;48.402;9.994;2024-02-28T05:11:47;6.30;99.90
13585;DHT22;6863;48.402;9.994;2024-02-28T05:14:12;6.30;99.90
13585;DHT22;6863;48.402;9.994;2024-02-28T05:16:38;6.30;99.90
13585;DHT22;6863;48.402;9.994;2024-02-28T05:19:03;6.20;99.90
13585;DHT22;6863;48.402;9.994;2024-02-28T05:21:29;6.20;99.90
13585;DHT22;6863;48.402;9.994;2024-02-28T05:23:55;6.20;99.90
13585;DHT22;6863;48.402;9.994;2024-02-28T05:26:21;6.20;99.90
13585;DHT22;6863;48.402;9.994;2024-02-28T05:28:46;6.20;99.90
13585;DHT22;6863;48.402;9.994;2024-02-28T05:31:22;6.20;99.90
13585;DHT22;6863;48.402;9.994;2024-02-28T05:33:49;6.20;99.90
13585;DHT22;6863;48.402;9.994;2024-02-28T05:36:15;6.10;99.90
13585;DHT22;6863;48.402;9.994;2024-02-28T05:38:41;6.10;99.90
13585;DHT22;6863;48.402;9.994;2024-02-28T05:41:07;6.10;99.90
13585;DHT22;6863;48.402;9.994;2024-02-28T05:43:33;6.10;99.90
13585;DHT22;6863;48.402;9.994;2024-02-28T05:45:58;6.10;99.90
13585;DHT22;6863;48.402;9.994;2024-02-28T05:48:24;6.00;99.90
13585;DHT22;6863;48.402;9.994;2024-02-28T05:50:49;6.00;99.90
13585;DHT22;6863;48.402;9.994;2024-02-28T05:53:15;6.00;99.90
13585;DHT22;6863;48.402;9.994;2024-02-28T05:55:40;6.00;99.90
13585;DHT22;6863;48.402;9.994;2024-02-28T05:58:06;6.00;99.90
13585;DHT22;6863;48.402;9.994;2024-02-28T06:00:31;6.00;99.90
13585;DHT22;6863;48.402;9.994;2024-02-28T06:02:59;5.90;99.90
13585;DHT22;6863;48.402;9.994;2024-02-28T06:05:24;5.90;99.90
13585;DHT22;6863;48.402;9.994;2024-02-28T06:07:50;5.90;99.90
13585;DHT22;6863;48.402;9.994;2024-02-28T06:10:16;5.90;99.90
13585;DHT22;6863;48.402;9.994;2024-02-28T06:12:42;5.90;99.90
13585;DHT22;6863;48.402;9.994;2024-02-28T06:15:07;6.00;99.90
13585;DHT22;6863;48.402;9.994;2024-02-28T06:17:33;6.00;99.90
13585;DHT22;6863;48.402;9.994;2024-02-28T06:19:58;6.00;99.90
13585;DHT22;6863;48.402;9.994;2024-02-28T06:22:24;6.00;99.90
13585;DHT22;6863;48.402;9.994;2024-02-28T06:24:49;6.10;99.90
13585;DHT22;6863;48.402;9.994;2024-02-28T06:27:15;6.10;99.90
13585;DHT22;6863;48.402;9.994;2024-02-28T06:29:41;6.00;99.90
13585;DHT22;6863;48.402;9.994;2024-02-28T06:32:07;6.10;99.90
13585;DHT22;6863;48.402;9.994;2024-02-28T06:34:33;6.00;99.90
13585;DHT22;6863;48.402;9.994;2024-02-28T06:36:58;6.00;99.90
13585;DHT22;6863;48.402;9.994;2024-02-28T06:39:24;6.00;99.90
13585;DHT22;6863;48.402;9.994;2024-02-28T06:41:49;6.00;99.90
13585;DHT22;6863;48.402;9.994;2024-02-28T06:44:19;6.00;99.90
13585;DHT22;6863;48.402;9.994;2024-02-28T06:46:45;6.00;99.90
13585;DHT22;6863;48.402;9.994;2024-02-28T06:49:10;6.00;99.90
13585;DHT22;6863;48.402;9.994;2024-02-28T06:51:36;6.10;99.90
13585;DHT22;6863;48.402;9.994;2024-02-28T06:54:02;6.10;99.90
13585;DHT22;6863;48.402;9.994;2024-02-28T06:56:27;6.10;99.90
13585;DHT22;6863;48.402;9.994;2024-02-28T06:58:53;6.00;99.90
13585;DHT22;6863;48.402;9.994;2024-02-28T07:01:18;6.10;99.90
13585;DHT22;6863;48.402;9.994;2024-02-28T07:03:44;6.20;99.90
13585;DHT22;6863;48.402;9.994;2024-02-28T07:06:11;6.30;99.90
13585;DHT22;6863;48.402;9.994;2024-02-28T07:08:36;6.30;99.90
13585;DHT22;6863;48.402;9.994;2024-02-28T07:11:02;6.30;99.90
13585;DHT22;6863;48.402;9.994;2024-02-28T07:13:28;6.30;99.90
13585;DHT22;6863;48.402;9.994;2024-02-28T07:15:54;6.30;99.90
13585;DHT22;6863;48.402;9.994;2024-02-28T07:18:20;6.30;99.90
13585;DHT22;6863;48.402;9.994;2024-02-28T07:20:46;6.30;99.90
13585;DHT22;6863;48.402;9.994;2024-02-28T07:23:12;6.40;99.90
13585;DHT22;6863;48.402;9.994;2024-02-28T07:25:37;6.40;99.90
13585;DHT22;6863;48.402;9.994;2024-02-28T07:28:03;6.40;99.90
13585;DHT22;6863;48.402;9.994;2024-02-28T07:30:30;6.30;99.90
13585;DHT22;6863;48.402;9.994;2024-02-28T07:32:55;6.30;99.90
13585;DHT22;6863;48.402;9.994;2024-02-28T07:35:22;6.30;99.90
13585;DHT22;6863;48.402;9.994;2024-02-28T07:38:00;6.30;99.90
13585;DHT22;6863;48.402;9.994;2024-02-28T07:40:25;6.30;99.90
13585;DHT22;6863;48.402;9.994;2024-02-28T07:42:51;6.40;99.90
13585;DHT22;6863;48.402;9.994;2024-02-28T07:45:16;6.40;99.90
13585;DHT22;6863;48.402;9.994;2024-02-28T07:47:42;6.50;99.90
13585;DHT22;6863;48.402;9.994;2024-02-28T07:50:08;6.60;99.90
13585;DHT22;6863;48.402;9.994;2024-02-28T07:52:33;6.60;99.90
13585;DHT22;6863;48.402;9.994;2024-02-28T07:55:01;6.70;99.90
13585;DHT22;6863;48.402;9.994;2024-02-28T07:57:27;6.60;99.90
13585;DHT22;6863;48.402;9.994;2024-02-28T07:59:53;6.60;99.90
13585;DHT22;6863;48.402;9.994;2024-02-28T08:02:18;6.60;99.90
13585;DHT22;6863;48.402;9.994;2024-02-28T08:04:45;6.60;99.90
13585;DHT22;6863;48.402;9.994;2024-02-28T08:07:11;6.70;99.90
13585;DHT22;6863;48.402;9.994;2024-02-28T08:09:37;6.70;99.90
13585;DHT22;6863;48.402;9.994;2024-02-28T08:12:02;6.70;99.90
13585;DHT22;6863;48.402;9.994;2024-02-28T08:14:28;6.70;99.90
13585;DHT22;6863;48.402;9.994;2024-02-28T08:16:54;6.70;99.90
13585;DHT22;6863;48.402;9.994;2024-02-28T08:19:19;6.70;99.90
13585;DHT22;6863;48.402;9.994;2024-02-28T08:21:45;6.80;99.90
13585;DHT22;6863;48.402;9.994;2024-02-28T08:24:11;6.90;99.90
13585;DHT22;6863;48.402;9.994;2024-02-28T08:26:36;6.90;99.90
13585;DHT22;6863;48.402;9.994;2024-02-28T08:29:02;7.00;99.90
13585;DHT22;6863;48.402;9.994;2024-02-28T08:31:28;7.20;99.90
13585;DHT22;6863;48.402;9.994;2024-02-28T08:33:53;7.40;99.90
13585;DHT22;6863;48.402;9.994;2024-02-28T08:36:21;7.50;99.90
13585;DHT22;6863;48.402;9.994;2024-02-28T08:38:46;7.50;99.90
13585;DHT22;6863;48.402;9.994;2024-02-28T08:41:12;7.50;99.90
13585;DHT22;6863;48.402;9.994;2024-02-28T08:43:39;7.40;99.90
13585;DHT22;6863;48.402;9.994;2024-02-28T08:46:05;7.40;99.90
13585;DHT22;6863;48.402;9.994;2024-02-28T08:48:31;7.40;99.90
13585;DHT22;6863;48.402;9.994;2024-02-28T08:50:57;7.50;99.90
13585;DHT22;6863;48.402;9.994;2024-02-28T08:53:22;7.60;99.90
13585;DHT22;6863;48.402;9.994;2024-02-28T08:55:48;7.70;99.90
13585;DHT22;6863;48.402;9.994;2024-02-28T08:58:14;7.70;99.90
13585;DHT22;6863;48.402;9.994;2024-02-28T09:00:40;7.90;99.90
13585;DHT22;6863;48.402;9.994;2024-02-28T09:03:05;8.00;99.90
13585;DHT22;6863;48.402;9.994;2024-02-28T09:05:31;8.10;99.90
13585;DHT22;6863;48.402;9.994;2024-02-28T09:07:56;8.20;99.90
13585;DHT22;6863;48.402;9.994;2024-02-28T09:10:23;8.30;99.90
13585;DHT22;6863;48.402;9.994;2024-02-28T09:12:51;8.20;99.90
13585;DHT22;6863;48.402;9.994;2024-02-28T09:15:17;8.20;99.90
13585;DHT22;6863;48.402;9.994;2024-02-28T09:17:43;8.30;99.90
13585;DHT22;6863;48.402;9.994;2024-02-28T09:20:09;8.50;99.90
13585;DHT22;6863;48.402;9.994;2024-02-28T09:22:35;8.70;99.90
13585;DHT22;6863;48.402;9.994;2024-02-28T09:25:01;8.50;99.90
13585;DHT22;6863;48.402;9.994;2024-02-28T09:27:30;8.50;99.90
13585;DHT22;6863;48.402;9.994;2024-02-28T09:29:56;8.60;99.90
13585;DHT22;6863;48.402;9.994;2024-02-28T09:32:21;8.60;99.90
13585;DHT22;6863;48.402;9.994;2024-02-28T09:34:47;8.70;99.90
13585;DHT22;6863;48.402;9.994;2024-02-28T09:37:14;8.70;99.90
13585;DHT22;6863;48.402;9.994;2024-02-28T09:39:40;8.70;99.90
13585;DHT22;6863;48.402;9.994;2024-02-28T09:42:06;8.80;99.80
13585;DHT22;6863;48.402;9.994;2024-02-28T09:44:34;8.90;98.90
13585;DHT22;6863;48.402;9.994;2024-02-28T09:46:59;8.70;98.90
13585;DHT22;6863;48.402;9.994;2024-02-28T09:49:26;8.60;99.10
13585;DHT22;6863;48.402;9.994;2024-02-28T09:51:52;8.40;99.30
13585;DHT22;6863;48.402;9.994;2024-02-28T09:54:18;8.40;99.50
13585;DHT22;6863;48.402;9.994;2024-02-28T09:56:44;8.30;99.60
13585;DHT22;6863;48.402;9.994;2024-02-28T09:59:11;8.30;99.50
13585;DHT22;6863;48.402;9.994;2024-02-28T10:01:42;8.50;99.60
13585;DHT22;6863;48.402;9.994;2024-02-28T10:04:12;8.80;99.10
13585;DHT22;6863;48.402;9.994;2024-02-28T10:06:40;9.20;98.60
13585;DHT22;6863;48.402;9.994;2024-02-28T10:09:06;9.30;98.00
13585;DHT22;6863;48.402;9.994;2024-02-28T10:11:33;9.40;97.90
13585;DHT22;6863;48.402;9.994;2024-02-28T10:14:00;9.40;97.80
13585;DHT22;6863;48.402;9.994;2024-02-28T10:16:27;9.50;97.40
13585;DHT22;6863;48.402;9.994;2024-02-28T10:18:52;9.40;97.50
13585;DHT22;6863;48.402;9.994;2024-02-28T10:21:19;9.60;97.40
13585;DHT22;6863;48.402;9.994;2024-02-28T10:23:45;9.60;97.20
13585;DHT22;6863;48.402;9.994;2024-02-28T10:26:11;9.60;97.30
13585;DHT22;6863;48.402;9.994;2024-02-28T10:28:38;9.60;97.20
13585;DHT22;6863;48.402;9.994;2024-02-28T10:31:05;9.50;97.50
13585;DHT22;6863;48.402;9.994;2024-02-28T10:33:32;9.60;97.40
13585;DHT22;6863;48.402;9.994;2024-02-28T10:35:59;9.80;97.10
13585;DHT22;6863;48.402;9.994;2024-02-28T10:38:26;9.80;96.50
13585;DHT22;6863;48.402;9.994;2024-02-28T10:40:53;9.80;96.30
13585;DHT22;6863;48.402;9.994;2024-02-28T10:43:19;9.50;96.50
13585;DHT22;6863;48.402;9.994;2024-02-28T10:45:45;9.20;97.00
13585;DHT22;6863;48.402;9.994;2024-02-28T10:48:14;9.10;97.20
13585;DHT22;6863;48.402;9.994;2024-02-28T10:50:40;9.00;97.60
13585;DHT22;6863;48.402;9.994;2024-02-28T10:53:13;9.10;97.90
13585;DHT22;6863;48.402;9.994;2024-02-28T10:55:42;9.30;97.40
13585;DHT22;6863;48.402;9.994;2024-02-28T10:58:10;9.30;97.40
13585;DHT22;6863;48.402;9.994;2024-02-28T11:00:40;9.50;97.20
13585;DHT22;6863;48.402;9.994;2024-02-28T11:03:15;9.50;97.10
13585;DHT22;6863;48.402;9.994;2024-02-28T11:05:42;9.70;96.90
13585;DHT22;6863;48.402;9.994;2024-02-28T11:08:09;9.70;96.70
13585;DHT22;6863;48.402;9.994;2024-02-28T11:10:35;9.70;96.80
13585;DHT22;6863;48.402;9.994;2024-02-28T11:13:01;9.70;97.00
13585;DHT22;6863;48.402;9.994;2024-02-28T11:15:27;10.00;96.10
13585;DHT22;6863;48.402;9.994;2024-02-28T11:18:06;10.10;95.80
13585;DHT22;6863;48.402;9.994;2024-02-28T11:20:33;10.30;95.50
13585;DHT22;6863;48.402;9.994;2024-02-28T11:23:00;10.30;95.30
13585;DHT22;6863;48.402;9.994;2024-02-28T11:25:25;10.50;95.20
13585;DHT22;6863;48.402;9.994;2024-02-28T11:27:51;10.90;94.70
13585;DHT22;6863;48.402;9.994;2024-02-28T11:30:17;11.30;94.20
13585;DHT22;6863;48.402;9.994;2024-02-28T11:32:42;11.70;93.60
13585;DHT22;6863;48.402;9.994;2024-02-28T11:35:09;12.80;92.40
13585;DHT22;6863;48.402;9.994;2024-02-28T11:37:38;14.60;88.90
13585;DHT22;6863;48.402;9.994;2024-02-28T11:40:07;17.10;81.60
13585;DHT22;6863;48.402;9.994;2024-02-28T11:42:34;17.40;73.90
13585;DHT22;6863;48.402;9.994;2024-02-28T11:45:00;17.00;73.30
13585;DHT22;6863;48.402;9.994;2024-02-28T11:47:28;16.00;74.60
13585;DHT22;6863;48.402;9.994;2024-02-28T11:50:01;15.60;76.80
13585;DHT22;6863;48.402;9.994;2024-02-28T11:52:27;14.90;78.50
13585;DHT22;6863;48.402;9.994;2024-02-28T11:54:53;14.00;80.20
13585;DHT22;6863;48.402;9.994;2024-02-28T11:57:19;13.90;81.50
13585;DHT22;6863;48.402;9.994;2024-02-28T11:59:45;13.50;81.90
13585;DHT22;6863;48.402;9.994;2024-02-28T12:02:12;13.80;82.10
13585;DHT22;6863;48.402;9.994;2024-02-28T12:04:40;14.10;81.00
13585;DHT22;6863;48.402;9.994;2024-02-28T12:07:05;14.30;79.90
13585;DHT22;6863;48.402;9.994;2024-02-28T12:09:31;14.40;80.10
13585;DHT22;6863;48.402;9.994;2024-02-28T12:12:03;15.50;78.50
13585;DHT22;6863;48.402;9.994;2024-02-28T12:14:36;15.90;75.90
13585;DHT22;6863;48.402;9.994;2024-02-28T12:17:02;15.40;75.90
13585;DHT22;6863;48.402;9.994;2024-02-28T12:19:28;15.10;75.80
13585;DHT22;6863;48.402;9.994;2024-02-28T12:21:54;14.30;77.40
13585;DHT22;6863;48.402;9.994;2024-02-28T12:24:19;14.00;78.50
13585;DHT22;6863;48.402;9.994;2024-02-28T12:26:45;13.40;79.80
13585;DHT22;6863;48.402;9.994;2024-02-28T12:29:11;13.00;81.30
13585;DHT22;6863;48.402;9.994;2024-02-28T12:31:37;13.20;80.90
13585;DHT22;6863;48.402;9.994;2024-02-28T12:34:02;13.20;80.10
13585;DHT22;6863;48.402;9.994;2024-02-28T12:36:31;13.00;81.00
13585;DHT22;6863;48.402;9.994;2024-02-28T12:38:58;12.40;82.60
13585;DHT22;6863;48.402;9.994;2024-02-28T12:41:25;12.20;83.60
13585;DHT22;6863;48.402;9.994;2024-02-28T12:43:51;12.00;84.70
13585;DHT22;6863;48.402;9.994;2024-02-28T12:46:16;12.10;84.60
13585;DHT22;6863;48.402;9.994;2024-02-28T12:48:42;11.70;86.10
13585;DHT22;6863;48.402;9.994;2024-02-28T12:51:11;11.50;87.00
13585;DHT22;6863;48.402;9.994;2024-02-28T12:53:38;11.30;88.20
13585;DHT22;6863;48.402;9.994;2024-02-28T12:56:04;11.00;88.80
13585;DHT22;6863;48.402;9.994;2024-02-28T12:58:29;11.10;89.10
13585;DHT22;6863;48.402;9.994;2024-02-28T13:00:55;11.30;88.80
13585;DHT22;6863;48.402;9.994;2024-02-28T13:03:21;11.50;87.90
13585;DHT22;6863;48.402;9.994;2024-02-28T13:05:46;11.60;87.60
13585;DHT22;6863;48.402;9.994;2024-02-28T13:08:12;11.50;88.50
13585;DHT22;6863;48.402;9.994;2024-02-28T13:10:37;11.70;88.50
13585;DHT22;6863;48.402;9.994;2024-02-28T13:13:06;11.80;88.80
13585;DHT22;6863;48.402;9.994;2024-02-28T13:15:32;11.50;89.10
13585;DHT22;6863;48.402;9.994;2024-02-28T13:17:58;11.50;89.30
13585;DHT22;6863;48.402;9.994;2024-02-28T13:20:24;11.70;89.20
13585;DHT22;6863;48.402;9.994;2024-02-28T13:22:50;11.70;88.60
13585;DHT22;6863;48.402;9.994;2024-02-28T13:25:15;11.60;89.20
13585;DHT22;6863;48.402;9.994;2024-02-28T13:27:43;11.80;88.40
13585;DHT22;6863;48.402;9.994;2024-02-28T13:30:09;11.70;88.90
13585;DHT22;6863;48.402;9.994;2024-02-28T13:32:35;11.50;88.50
13585;DHT22;6863;48.402;9.994;2024-02-28T13:35:00;11.30;89.80
13585;DHT22;6863;48.402;9.994;2024-02-28T13:37:26;11.50;89.20
13585;DHT22;6863;48.402;9.994;2024-02-28T13:39:52;11.30;89.20
13585;DHT22;6863;48.402;9.994;2024-02-28T13:42:18;11.50;89.10
13585;DHT22;6863;48.402;9.994;2024-02-28T13:44:47;11.30;89.70
13585;DHT22;6863;48.402;9.994;2024-02-28T13:47:13;11.30;89.90
13585;DHT22;6863;48.402;9.994;2024-02-28T13:49:39;11.30;89.90
13585;DHT22;6863;48.402;9.994;2024-02-28T13:52:05;11.10;90.20
13585;DHT22;6863;48.402;9.994;2024-02-28T13:54:31;11.10;90.30
13585;DHT22;6863;48.402;9.994;2024-02-28T13:56:57;11.30;90.20
13585;DHT22;6863;48.402;9.994;2024-02-28T13:59:23;11.40;90.00
13585;DHT22;6863;48.402;9.994;2024-02-28T14:01:49;11.50;89.90
13585;DHT22;6863;48.402;9.994;2024-02-28T14:04:15;11.60;89.20
13585;DHT22;6863;48.402;9.994;2024-02-28T14:06:41;12.10;87.90
13585;DHT22;6863;48.402;9.994;2024-02-28T14:09:06;12.80;85.90
13585;DHT22;6863;48.402;9.994;2024-02-28T14:11:32;13.60;83.30
13585;DHT22;6863;48.402;9.994;2024-02-28T14:13:58;15.20;79.10
13585;DHT22;6863;48.402;9.994;2024-02-28T14:16:24;15.50;75.50
13585;DHT22;6863;48.402;9.994;2024-02-28T14:18:50;15.60;73.30
13585;DHT22;6863;48.402;9.994;2024-02-28T14:21:16;15.50;73.30
13585;DHT22;6863;48.402;9.994;2024-02-28T14:23:42;15.60;71.80
13585;DHT22;6863;48.402;9.994;2024-02-28T14:26:08;14.50;74.00
13585;DHT22;6863;48.402;9.994;2024-02-28T14:28:33;13.90;75.60
13585;DHT22;6863;48.402;9.994;2024-02-28T14:30:59;13.00;78.80
13585;DHT22;6863;48.402;9.994;2024-02-28T14:33:26;12.30;82.50
13585;DHT22;6863;48.402;9.994;2024-02-28T14:35:52;11.90;84.80
13585;DHT22;6863;48.402;9.994;2024-02-28T14:38:18;11.70;85.80
13585;DHT22;6863;48.402;9.994;2024-02-28T14:40:44;11.60;86.40
13585;DHT22;6863;48.402;9.994;2024-02-28T14:43:10;11.40;87.20
13585;DHT22;6863;48.402;9.994;2024-02-28T14:45:36;11.20;88.20
13585;DHT22;6863;48.402;9.994;2024-02-28T14:48:01;10.90;88.70
13585;DHT22;6863;48.402;9.994;2024-02-28T14:50:27;10.70;90.00
13585;DHT22;6863;48.402;9.994;2024-02-28T14:52:52;10.50;90.40
13585;DHT22;6863;48.402;9.994;2024-02-28T14:55:18;10.40;90.80
13585;DHT22;6863;48.402;9.994;2024-02-28T14:57:44;10.10;91.40
13585;DHT22;6863;48.402;9.994;2024-02-28T15:00:10;10.00;91.60
13585;DHT22;6863;48.402;9.994;2024-02-28T15:02:42;9.90;92.20
13585;DHT22;6863;48.402;9.994;2024-02-28T15:05:08;9.80;92.50
13585;DHT22;6863;48.402;9.994;2024-02-28T15:07:34;9.60;92.70
13585;DHT22;6863;48.402;9.994;2024-02-28T15:10:01;9.40;93.30
13585;DHT22;6863;48.402;9.994;2024-02-28T15:12:30;9.30;93.60
13585;DHT22;6863;48.402;9.994;2024-02-28T15:14:56;9.20;94.10
13585;DHT22;6863;48.402;9.994;2024-02-28T15:17:22;9.20;94.60
13585;DHT22;6863;48.402;9.994;2024-02-28T15:19:47;9.20;94.50
13585;DHT22;6863;48.402;9.994;2024-02-28T15:22:13;9.10;94.70
13585;DHT22;6863;48.402;9.994;2024-02-28T15:24:42;9.00;94.60
13585;DHT22;6863;48.402;9.994;2024-02-28T15:27:08;8.90;94.70
13585;DHT22;6863;48.402;9.994;2024-02-28T15:29:33;8.80;94.90
13585;DHT22;6863;48.402;9.994;2024-02-28T15:31:59;8.70;95.20
13585;DHT22;6863;48.402;9.994;2024-02-28T15:34:25;8.70;95.50
13585;DHT22;6863;48.402;9.994;2024-02-28T15:36:50;8.60;95.70
13585;DHT22;6863;48.402;9.994;2024-02-28T15:39:16;8.60;95.90
13585;DHT22;6863;48.402;9.994;2024-02-28T15:41:42;8.50;96.00
13585;DHT22;6863;48.402;9.994;2024-02-28T15:44:07;8.30;96.30
13585;DHT22;6863;48.402;9.994;2024-02-28T15:46:33;8.20;96.80
13585;DHT22;6863;48.402;9.994;2024-02-28T15:48:59;8.20;97.20